createdAt,value
2018-08-06T00:00:31.668Z,2.53
2018-08-06T00:02:58.594Z,2.80
2018-08-06T00:05:25.523Z,2.70
2018-08-06T00:07:52.488Z,2.77
2018-08-06T00:10:23.002Z,2.60
2018-08-06T00:12:50.000Z,2.97
2018-08-06T00:15:16.981Z,3.17
2018-08-06T00:17:43.946Z,2.90
2018-08-06T00:20:12.068Z,2.93
2018-08-06T00:22:39.504Z,2.80
2018-08-06T00:25:07.794Z,2.80
2018-08-06T00:27:34.710Z,2.70
2018-08-06T00:30:01.785Z,3.10
2018-08-06T00:32:28.685Z,2.93
2018-08-06T00:34:55.702Z,3.10
2018-08-06T00:37:22.777Z,2.80
2018-08-06T00:39:49.685Z,2.87
2018-08-06T00:42:16.640Z,3.20
2018-08-06T00:44:43.555Z,3.50
2018-08-06T00:47:10.560Z,3.17
2018-08-06T00:49:37.564Z,2.90
2018-08-06T00:52:04.625Z,2.90
2018-08-06T00:54:31.524Z,2.97
2018-08-06T00:56:58.563Z,3.03
2018-08-06T00:59:25.628Z,3.07
2018-08-06T01:01:52.944Z,3.20
2018-08-06T01:04:19.865Z,3.37
2018-08-06T01:06:46.839Z,3.37
2018-08-06T01:09:13.775Z,3.40
2018-08-06T01:11:40.818Z,3.33
2018-08-06T01:14:07.804Z,3.40
2018-08-06T01:16:34.766Z,3.13
2018-08-06T01:19:01.717Z,3.47
2018-08-06T01:21:28.732Z,3.10
2018-08-06T01:23:55.663Z,3.47
2018-08-06T01:26:22.591Z,3.40
2018-08-06T01:28:49.590Z,3.20
2018-08-06T01:31:16.692Z,3.40
2018-08-06T01:33:43.615Z,3.27
2018-08-06T01:36:10.544Z,3.20
2018-08-06T01:38:37.493Z,3.17
2018-08-06T01:41:04.430Z,3.40
2018-08-06T01:43:31.366Z,3.50
2018-08-06T01:45:58.271Z,3.20
2018-08-06T01:48:25.216Z,2.97
2018-08-06T01:50:52.157Z,3.33
2018-08-06T01:53:19.108Z,3.00
2018-08-06T01:55:45.990Z,3.00
2018-08-06T01:58:12.920Z,2.97
2018-08-06T02:00:41.769Z,2.63
2018-08-06T02:03:09.681Z,3.43
2018-08-06T02:05:37.360Z,3.10
2018-08-06T02:08:05.211Z,2.93
2018-08-06T02:10:32.093Z,3.10
2018-08-06T02:12:59.016Z,3.20
2018-08-06T02:15:26.453Z,3.00
2018-08-06T02:17:54.336Z,3.13
2018-08-06T02:20:22.095Z,3.20
2018-08-06T02:22:50.100Z,3.13
2018-08-06T02:25:18.396Z,3.07
2018-08-06T02:27:45.391Z,2.97
2018-08-06T02:30:14.738Z,3.00
2018-08-06T02:32:42.787Z,3.17
2018-08-06T02:35:12.803Z,3.13
2018-08-06T02:37:41.237Z,3.27
2018-08-06T02:40:11.269Z,3.33
2018-08-06T02:42:39.280Z,3.60
2018-08-06T02:45:09.196Z,3.80
2018-08-06T02:47:38.092Z,3.87
2018-08-06T02:50:08.096Z,3.60
2018-08-06T02:52:36.524Z,4.00
2018-08-06T02:55:05.368Z,4.53
2018-08-06T02:57:33.556Z,4.10
2018-08-06T03:00:01.964Z,4.00
2018-08-06T03:02:30.805Z,4.17
2018-08-06T03:04:58.123Z,4.17
2018-08-06T03:07:26.143Z,4.30
2018-08-06T03:09:53.121Z,4.30
2018-08-06T03:12:20.037Z,4.20
2018-08-06T03:14:47.053Z,4.70
2018-08-06T03:17:13.969Z,4.40
2018-08-06T03:19:40.908Z,4.70
2018-08-06T03:22:07.831Z,4.43
2018-08-06T03:24:34.756Z,4.17
2018-08-06T03:27:01.687Z,4.37
2018-08-06T03:29:28.625Z,4.50
2018-08-06T03:31:55.585Z,4.67
2018-08-06T03:34:22.521Z,4.20
2018-08-06T03:36:49.447Z,4.37
2018-08-06T03:39:16.354Z,4.23
2018-08-06T03:41:43.292Z,4.83
2018-08-06T03:44:10.263Z,3.93
2018-08-06T03:46:37.180Z,4.20
2018-08-06T03:49:04.152Z,4.50
2018-08-06T03:51:31.111Z,4.20
2018-08-06T03:53:58.064Z,4.60
2018-08-06T03:56:25.060Z,3.90
2018-08-06T03:58:52.610Z,4.00
2018-08-06T04:01:19.580Z,4.70
2018-08-06T04:03:46.680Z,4.20
2018-08-06T04:06:13.652Z,3.87
2018-08-06T04:08:40.659Z,4.00
2018-08-06T04:11:07.593Z,4.47
2018-08-06T04:13:34.635Z,3.90
2018-08-06T04:16:01.549Z,3.97
2018-08-06T04:18:28.476Z,3.83
2018-08-06T04:20:55.415Z,4.00
2018-08-06T04:23:22.386Z,4.07
2018-08-06T04:25:49.364Z,4.13
2018-08-06T04:28:16.297Z,3.70
2018-08-06T04:30:43.224Z,4.20
2018-08-06T04:33:10.193Z,3.83
2018-08-06T04:35:37.169Z,3.97
2018-08-06T04:38:04.224Z,4.30
2018-08-06T04:40:31.192Z,4.13
2018-08-06T04:42:58.131Z,4.30
2018-08-06T04:45:25.110Z,4.27
2018-08-06T04:47:52.042Z,4.20
2018-08-06T04:50:18.989Z,4.47
2018-08-06T04:52:46.232Z,4.30
2018-08-06T04:55:14.060Z,4.57
2018-08-06T04:57:41.041Z,4.20
2018-08-06T05:00:10.377Z,4.50
2018-08-06T05:02:37.332Z,4.40
2018-08-06T05:05:04.784Z,3.90
2018-08-06T05:07:31.718Z,4.00
2018-08-06T05:09:58.644Z,3.60
2018-08-06T05:12:25.568Z,3.70
2018-08-06T05:14:52.480Z,4.00
2018-08-06T05:17:19.402Z,3.90
2018-08-06T05:19:46.308Z,4.10
2018-08-06T05:22:13.237Z,4.30
2018-08-06T05:24:40.241Z,3.77
2018-08-06T05:27:07.113Z,3.30
2018-08-06T05:29:34.020Z,3.30
2018-08-06T05:32:00.945Z,3.80
2018-08-06T05:34:27.900Z,3.20
2018-08-06T05:36:54.824Z,3.27
2018-08-06T05:39:21.748Z,3.40
2018-08-06T05:41:48.706Z,3.70
2018-08-06T05:44:15.636Z,4.03
2018-08-06T05:46:42.570Z,4.33
2018-08-06T05:49:09.514Z,3.93
2018-08-06T05:51:36.442Z,4.17
2018-08-06T05:54:03.392Z,4.17
2018-08-06T05:56:30.325Z,4.40
2018-08-06T05:58:57.213Z,3.70
2018-08-06T06:01:24.168Z,4.80
2018-08-06T06:03:51.098Z,4.37
2018-08-06T06:06:18.036Z,4.10
2018-08-06T06:08:44.964Z,4.83
2018-08-06T06:11:11.920Z,4.67
2018-08-06T06:13:38.852Z,3.93
2018-08-06T06:16:06.771Z,4.30
2018-08-06T06:18:33.720Z,4.20
2018-08-06T06:21:00.673Z,4.50
2018-08-06T06:23:27.613Z,3.77
2018-08-06T06:25:54.554Z,4.20
2018-08-06T06:28:21.480Z,3.37
2018-08-06T06:30:48.408Z,3.40
2018-08-06T06:33:15.308Z,3.43
2018-08-06T06:35:42.227Z,3.67
2018-08-06T06:38:09.148Z,4.13
2018-08-06T06:40:36.125Z,3.97
2018-08-06T06:43:03.068Z,3.63
2018-08-06T06:45:29.997Z,3.53
2018-08-06T06:47:56.912Z,3.57
2018-08-06T06:50:23.848Z,3.37
2018-08-06T06:52:50.759Z,2.93
2018-08-06T06:55:17.672Z,2.50
2018-08-06T06:57:44.600Z,2.30
2018-08-06T07:00:11.689Z,2.40
2018-08-06T07:02:39.156Z,2.07
2018-08-06T07:05:06.424Z,2.33
2018-08-06T07:07:33.635Z,2.30
2018-08-06T07:10:00.567Z,2.77
2018-08-06T07:12:27.522Z,2.13
2018-08-06T07:14:54.440Z,2.20
2018-08-06T07:17:21.357Z,2.60
2018-08-06T07:19:48.267Z,2.27
2018-08-06T07:22:15.208Z,2.30
2018-08-06T07:24:42.136Z,2.40
2018-08-06T07:27:09.063Z,1.97
2018-08-06T07:29:35.972Z,2.00
2018-08-06T07:32:02.917Z,2.20
2018-08-06T07:34:29.832Z,2.30
2018-08-06T07:36:56.773Z,2.40
2018-08-06T07:39:23.734Z,2.10
2018-08-06T07:41:50.645Z,1.90
2018-08-06T07:44:17.821Z,2.17
2018-08-06T07:46:44.759Z,2.17
2018-08-06T07:49:11.681Z,2.10
2018-08-06T07:51:38.604Z,2.43
2018-08-06T07:54:05.597Z,2.27
2018-08-06T07:56:32.526Z,2.03
2018-08-06T07:58:59.481Z,2.13
2018-08-06T08:01:26.420Z,2.40
2018-08-06T08:03:53.362Z,2.53
2018-08-06T08:06:21.123Z,2.60
2018-08-06T08:08:48.127Z,2.30
2018-08-06T08:11:15.104Z,2.47
2018-08-06T08:13:42.052Z,2.60
2018-08-06T08:16:08.984Z,2.73
2018-08-06T08:18:35.920Z,3.20
2018-08-06T08:21:02.842Z,3.10
2018-08-06T08:23:29.769Z,3.17
2018-08-06T08:25:56.709Z,2.90
2018-08-06T08:28:23.632Z,3.27
2018-08-06T08:30:50.588Z,2.87
2018-08-06T08:33:17.600Z,2.63
2018-08-06T08:35:44.546Z,2.60
2018-08-06T08:38:11.464Z,2.70
2018-08-06T08:40:38.504Z,2.60
2018-08-06T08:43:05.427Z,2.53
2018-08-06T08:45:32.380Z,2.47
2018-08-06T08:47:59.308Z,2.73
2018-08-06T08:50:26.240Z,2.40
2018-08-06T08:52:53.164Z,2.33
2018-08-06T08:55:20.327Z,2.37
2018-08-06T08:57:47.251Z,2.37
2018-08-06T09:03:00.893Z,2.50
2018-08-06T09:05:27.836Z,2.47
2018-08-06T09:07:54.782Z,2.50
2018-08-06T09:10:21.739Z,2.57
2018-08-06T09:12:48.676Z,2.50
2018-08-06T09:15:20.968Z,2.83
2018-08-06T09:17:47.949Z,2.60
2018-08-06T09:20:14.894Z,2.07
2018-08-06T09:22:42.740Z,2.13
2018-08-06T09:25:10.601Z,2.20
2018-08-06T09:27:38.680Z,2.50
2018-08-06T09:30:08.385Z,2.57
2018-08-06T09:32:35.308Z,2.57
2018-08-06T09:35:02.232Z,2.60
2018-08-06T09:37:29.173Z,2.73
2018-08-06T09:39:58.025Z,2.20
2018-08-06T09:42:25.471Z,2.00
2018-08-06T09:44:52.645Z,2.23
2018-08-06T09:47:19.608Z,2.20
2018-08-06T09:49:46.664Z,2.00
2018-08-06T09:52:13.723Z,2.20
2018-08-06T09:54:40.867Z,2.30
2018-08-06T09:57:07.861Z,2.33
2018-08-06T09:59:36.560Z,2.13
2018-08-06T10:02:07.338Z,2.10
2018-08-06T10:04:35.429Z,2.30
2018-08-06T10:07:03.912Z,2.33
2018-08-06T10:09:32.431Z,2.43
2018-08-06T10:12:01.805Z,1.87
2018-08-06T10:14:29.743Z,2.20
2018-08-06T10:16:57.859Z,1.97
2018-08-06T10:19:27.003Z,2.00
2018-08-06T10:21:55.027Z,2.23
2018-08-06T10:24:22.007Z,2.40
2018-08-06T10:26:49.040Z,2.47
2018-08-06T10:29:15.958Z,1.97
2018-08-06T10:31:44.237Z,2.40
2018-08-06T10:34:11.173Z,2.33
2018-08-06T10:36:38.110Z,2.53
2018-08-06T10:39:07.984Z,3.00
2018-08-06T10:41:34.897Z,2.50
2018-08-06T10:44:01.879Z,2.10
2018-08-06T10:46:29.562Z,2.33
2018-08-06T10:48:56.532Z,2.37
2018-08-06T10:51:23.483Z,2.37
2018-08-06T10:53:50.736Z,2.30
2018-08-06T10:56:17.624Z,2.10
2018-08-06T10:58:45.460Z,2.53
2018-08-06T11:01:12.989Z,2.30
2018-08-06T11:03:40.142Z,2.10
2018-08-06T11:06:07.077Z,2.10
2018-08-06T11:08:35.708Z,2.20
2018-08-06T11:11:02.695Z,2.10
2018-08-06T11:13:30.038Z,2.40
2018-08-06T11:15:57.157Z,2.00
2018-08-06T11:18:24.141Z,2.10
2018-08-06T11:20:51.104Z,2.03
2018-08-06T11:23:18.828Z,2.10
2018-08-06T11:25:45.740Z,1.90
2018-08-06T11:28:12.868Z,2.00
2018-08-06T11:30:40.005Z,2.17
2018-08-06T11:33:06.985Z,2.10
2018-08-06T11:35:35.680Z,2.00
2018-08-06T11:38:03.949Z,2.00
2018-08-06T11:40:34.033Z,2.07
2018-08-06T11:43:02.562Z,2.07
2018-08-06T11:45:29.476Z,1.83
2018-08-06T11:47:57.461Z,2.00
2018-08-06T11:50:25.677Z,2.00
2018-08-06T11:52:53.465Z,1.90
2018-08-06T11:55:20.441Z,1.60
2018-08-06T11:57:49.126Z,1.73
2018-08-06T12:00:21.633Z,1.80
2018-08-06T12:02:50.499Z,1.93
2018-08-06T12:05:17.548Z,1.90
2018-08-06T12:07:44.477Z,1.63
2018-08-06T12:10:13.274Z,1.77
2018-08-06T12:12:40.420Z,1.60
2018-08-06T12:15:08.245Z,1.80
2018-08-06T12:17:35.230Z,2.03
2018-08-06T12:20:03.712Z,2.10
2018-08-06T12:22:30.636Z,1.83
2018-08-06T12:24:57.580Z,1.93
2018-08-06T12:27:24.617Z,1.83
2018-08-06T12:29:51.571Z,1.90
2018-08-06T12:32:19.891Z,1.90
2018-08-06T12:34:46.900Z,1.70
2018-08-06T12:37:13.824Z,1.77
2018-08-06T12:39:40.757Z,1.77
2018-08-06T12:42:07.696Z,1.70
2018-08-06T12:44:36.963Z,1.87
2018-08-06T12:47:04.944Z,1.70
2018-08-06T12:49:33.240Z,1.30
2018-08-06T12:52:00.221Z,1.63
2018-08-06T12:54:27.175Z,1.90
2018-08-06T12:56:55.174Z,1.40
2018-08-06T12:59:23.457Z,1.57
2018-08-06T13:01:50.427Z,1.90
2018-08-06T13:04:17.368Z,1.60
2018-08-06T13:06:44.289Z,1.53
2018-08-06T13:09:11.231Z,1.70
2018-08-06T13:11:39.074Z,1.70
2018-08-06T13:14:06.595Z,1.80
2018-08-06T13:16:33.541Z,1.80
2018-08-06T13:19:00.481Z,1.57
2018-08-06T13:21:27.649Z,1.60
2018-08-06T13:23:54.563Z,1.90
2018-08-06T13:26:21.516Z,1.90
2018-08-06T13:28:48.490Z,1.80
2018-08-06T13:31:15.436Z,1.50
2018-08-06T13:33:42.391Z,1.50
2018-08-06T13:36:09.340Z,1.60
2018-08-06T13:38:36.285Z,1.60
2018-08-06T13:41:03.678Z,1.97
2018-08-06T13:43:30.628Z,1.90
2018-08-06T13:48:18.042Z,1.77
2018-08-06T13:50:44.956Z,1.80
2018-08-06T13:53:11.939Z,1.63
2018-08-06T13:55:38.927Z,2.30
2018-08-06T13:58:05.899Z,1.70
2018-08-06T14:00:32.889Z,1.80
2018-08-06T14:02:59.799Z,1.70
2018-08-06T14:05:26.754Z,1.70
2018-08-06T14:07:53.837Z,1.63
2018-08-06T14:10:20.768Z,1.67
2018-08-06T14:12:47.731Z,1.67
2018-08-06T14:15:15.981Z,1.53
2018-08-06T14:17:44.747Z,2.10
2018-08-06T14:20:13.359Z,1.90
2018-08-06T14:22:40.317Z,1.70
2018-08-06T14:25:08.480Z,1.80
2018-08-06T14:27:35.432Z,2.10
2018-08-06T14:30:02.838Z,1.83
2018-08-06T14:32:29.788Z,1.63
2018-08-06T14:34:56.738Z,1.70
2018-08-06T14:37:23.649Z,1.77
2018-08-06T14:39:51.201Z,1.97
2018-08-06T14:42:18.128Z,1.90
2018-08-06T14:44:45.062Z,1.93
2018-08-06T14:47:11.968Z,2.17
2018-08-06T14:49:38.976Z,3.93
2018-08-06T14:52:06.024Z,1.90
2018-08-06T14:54:32.886Z,1.90
2018-08-06T14:56:59.820Z,1.90
2018-08-06T14:59:26.773Z,2.00
2018-08-06T15:01:53.649Z,2.00
2018-08-06T15:04:20.580Z,1.80
2018-08-06T15:06:47.505Z,2.20
2018-08-06T15:09:14.734Z,2.00
2018-08-06T15:11:42.096Z,1.83
2018-08-06T15:14:10.385Z,2.30
2018-08-06T15:16:39.537Z,1.80
2018-08-06T15:19:07.951Z,2.00
2018-08-06T15:21:37.125Z,2.07
2018-08-06T15:24:08.577Z,1.97
2018-08-06T15:26:35.501Z,1.80
2018-08-06T15:29:02.994Z,1.97
2018-08-06T15:31:31.348Z,1.47
2018-08-06T15:33:58.234Z,2.30
2018-08-06T15:36:25.174Z,1.77
2018-08-06T15:38:52.135Z,1.60
2018-08-06T15:41:19.109Z,2.00
2018-08-06T15:43:46.036Z,1.90
2018-08-06T15:46:12.980Z,1.80
2018-08-06T15:48:39.890Z,2.40
2018-08-06T15:51:06.856Z,1.97
2018-08-06T15:53:33.813Z,2.13
2018-08-06T15:56:00.730Z,2.33
2018-08-06T15:58:27.678Z,4.30
2018-08-06T16:00:54.640Z,2.70
2018-08-06T16:03:21.590Z,3.03
2018-08-06T16:05:48.509Z,1.90
2018-08-06T16:08:15.460Z,2.07
2018-08-06T16:10:42.377Z,1.90
2018-08-06T16:13:09.316Z,2.10
2018-08-06T16:15:36.314Z,1.90
2018-08-06T16:18:03.284Z,2.00
2018-08-06T16:20:30.224Z,2.07
2018-08-06T16:22:57.141Z,1.70
2018-08-06T16:25:24.058Z,1.80
2018-08-06T16:27:50.991Z,1.90
2018-08-06T16:30:21.756Z,1.80
2018-08-06T16:32:49.058Z,2.00
2018-08-06T16:35:17.820Z,1.87
2018-08-06T16:37:44.988Z,1.77
2018-08-06T16:40:12.541Z,1.90
2018-08-06T16:42:39.520Z,1.93
2018-08-06T16:45:07.284Z,2.00
2018-08-06T16:47:34.637Z,2.00
2018-08-06T16:50:01.597Z,2.10
2018-08-06T16:52:28.543Z,2.00
2018-08-06T16:54:55.425Z,2.17
2018-08-06T16:57:22.337Z,2.50
2018-08-06T16:59:49.233Z,2.07
2018-08-06T17:02:16.212Z,1.80
2018-08-06T17:04:43.117Z,1.93
2018-08-06T17:07:10.015Z,1.80
2018-08-06T17:09:36.937Z,2.03
2018-08-06T17:12:03.953Z,1.97
2018-08-06T17:14:30.911Z,2.10
2018-08-06T17:16:57.855Z,2.40
2018-08-06T17:19:24.778Z,2.10
2018-08-06T17:21:51.706Z,1.70
2018-08-06T17:24:18.635Z,2.00
2018-08-06T17:26:45.528Z,2.00
2018-08-06T17:29:12.438Z,2.30
2018-08-06T17:31:39.357Z,2.07
2018-08-06T17:34:06.322Z,2.23
2018-08-06T17:36:33.298Z,2.23
2018-08-06T17:39:00.146Z,1.90
2018-08-06T17:41:27.084Z,2.20
2018-08-06T17:43:54.027Z,1.97
2018-08-06T17:46:20.956Z,2.00
2018-08-06T17:48:47.876Z,2.00
2018-08-06T17:51:14.807Z,1.87
2018-08-06T17:53:41.720Z,2.00
2018-08-06T17:56:08.615Z,2.13
2018-08-06T17:58:35.525Z,2.10
2018-08-06T18:01:02.452Z,2.03
2018-08-06T18:03:29.372Z,2.10
2018-08-06T18:05:56.292Z,2.00
2018-08-06T18:08:23.216Z,2.20
2018-08-06T18:10:50.136Z,2.23
2018-08-06T18:13:17.080Z,2.10
2018-08-06T18:15:43.996Z,2.17
2018-08-06T18:18:10.920Z,2.03
2018-08-06T18:20:37.824Z,2.07
2018-08-06T18:23:04.833Z,2.00
2018-08-06T18:25:31.768Z,2.17
2018-08-06T18:27:58.737Z,2.40
2018-08-06T18:30:25.656Z,2.17
2018-08-06T18:32:52.604Z,1.90
2018-08-06T18:35:19.848Z,2.43
2018-08-06T18:37:46.852Z,2.53
2018-08-06T18:40:14.693Z,2.30
2018-08-06T18:42:41.616Z,2.50
2018-08-06T18:45:12.882Z,2.27
2018-08-06T18:47:40.341Z,3.13
2018-08-06T18:50:08.011Z,3.03
2018-08-06T18:52:34.925Z,2.73
2018-08-06T18:55:01.873Z,2.47
2018-08-06T18:57:28.788Z,2.37
2018-08-06T18:59:55.784Z,1.93
2018-08-06T19:02:22.707Z,2.13
2018-08-06T19:04:49.657Z,2.43
2018-08-06T19:07:16.593Z,2.17
2018-08-06T19:09:43.520Z,1.90
2018-08-06T19:12:16.236Z,2.20
2018-08-06T19:14:43.147Z,2.10
2018-08-06T19:17:10.053Z,2.30
2018-08-06T19:19:36.939Z,2.27
2018-08-06T19:22:03.897Z,2.20
2018-08-06T19:24:36.742Z,1.90
2018-08-06T19:27:03.638Z,2.17
2018-08-06T19:29:30.554Z,2.37
2018-08-06T19:31:57.476Z,2.17
2018-08-06T19:34:24.397Z,2.00
2018-08-06T19:36:57.267Z,1.97
2018-08-06T19:39:24.244Z,2.00
2018-08-06T19:41:51.373Z,2.00
2018-08-06T19:44:18.264Z,2.10
2018-08-06T19:46:45.144Z,2.10
2018-08-06T19:49:17.897Z,2.00
2018-08-06T19:51:44.808Z,2.23
2018-08-06T19:54:11.899Z,2.13
2018-08-06T19:56:38.765Z,2.27
2018-08-06T19:59:12.848Z,2.70
2018-08-06T20:01:39.798Z,2.90
2018-08-06T20:04:07.324Z,3.90
2018-08-06T20:06:34.244Z,4.00
2018-08-06T20:09:01.168Z,4.03
2018-08-06T20:11:28.075Z,3.83
2018-08-06T20:13:55.064Z,3.50
2018-08-06T20:16:21.965Z,3.70
2018-08-06T20:18:48.913Z,3.10
2018-08-06T20:21:16.177Z,3.13
2018-08-06T20:23:43.117Z,2.70
2018-08-06T20:26:10.084Z,2.60
2018-08-06T20:28:37.017Z,2.87
2018-08-06T20:31:03.973Z,2.30
2018-08-06T20:33:30.995Z,2.30
2018-08-06T20:35:57.952Z,2.70
2018-08-06T20:38:24.868Z,2.37
2018-08-06T20:40:51.804Z,2.20
2018-08-06T20:43:18.755Z,1.93
2018-08-06T20:45:45.704Z,2.30
2018-08-06T20:48:12.657Z,2.40
2018-08-06T20:50:39.600Z,2.00
2018-08-06T20:53:06.541Z,2.00
2018-08-06T20:55:33.525Z,2.20
2018-08-06T20:58:00.491Z,2.20
2018-08-06T21:00:27.445Z,2.33
2018-08-06T21:02:54.390Z,2.13
2018-08-06T21:05:22.202Z,2.00
2018-08-06T21:07:49.240Z,1.90
2018-08-06T21:10:16.872Z,2.10
2018-08-06T21:12:44.050Z,2.30
2018-08-06T21:15:12.162Z,2.20
2018-08-06T21:17:39.297Z,2.17
2018-08-06T21:20:08.258Z,2.47
2018-08-06T21:22:35.193Z,2.13
2018-08-06T21:25:02.140Z,2.30
2018-08-06T21:27:29.055Z,2.10
2018-08-06T21:29:55.956Z,2.00
2018-08-06T21:32:22.964Z,2.20
2018-08-06T21:34:49.962Z,2.10
2018-08-06T21:37:16.913Z,2.07
2018-08-06T21:39:43.845Z,2.20
2018-08-06T21:42:10.824Z,2.10
2018-08-06T21:44:37.759Z,2.13
2018-08-06T21:47:04.693Z,2.50
2018-08-06T21:49:31.601Z,2.30
2018-08-06T21:51:58.556Z,2.20
2018-08-06T21:54:25.524Z,2.27
2018-08-06T21:56:52.435Z,2.33
2018-08-06T21:59:19.339Z,2.20
2018-08-06T22:01:46.316Z,2.40
2018-08-06T22:04:13.238Z,2.43
2018-08-06T22:06:40.380Z,2.30
2018-08-06T22:09:09.671Z,2.53
2018-08-06T22:11:36.615Z,2.40
2018-08-06T22:14:03.875Z,2.37
2018-08-06T22:16:30.849Z,2.00
2018-08-06T22:18:57.815Z,2.27
2018-08-06T22:21:25.233Z,2.17
2018-08-06T22:23:52.229Z,2.43
2018-08-06T22:26:19.157Z,2.10
2018-08-06T22:28:47.931Z,2.00
2018-08-06T22:31:14.868Z,2.40
2018-08-06T22:33:41.841Z,2.30
2018-08-06T22:36:08.756Z,2.40
2018-08-06T22:38:35.716Z,2.60
2018-08-06T22:41:02.674Z,2.60
2018-08-06T22:43:29.620Z,2.40
2018-08-06T22:45:56.561Z,2.50
2018-08-06T22:48:23.511Z,2.27
2018-08-06T22:50:50.439Z,2.20
2018-08-06T22:53:17.413Z,3.10
2018-08-06T22:55:56.095Z,2.50
2018-08-06T22:58:23.032Z,2.40
2018-08-06T23:00:49.960Z,2.33
2018-08-06T23:03:16.904Z,2.20
2018-08-06T23:05:43.847Z,2.70
2018-08-06T23:08:10.890Z,2.50
2018-08-06T23:10:37.817Z,2.73
2018-08-06T23:13:04.781Z,2.20
2018-08-06T23:15:31.709Z,2.53
2018-08-06T23:17:58.667Z,2.20
2018-08-06T23:20:25.664Z,2.37
2018-08-06T23:22:52.568Z,2.43
2018-08-06T23:25:22.027Z,2.23
2018-08-06T23:27:48.932Z,2.77
2018-08-06T23:30:15.848Z,2.73
2018-08-06T23:32:42.844Z,2.73
2018-08-06T23:35:11.277Z,2.53
2018-08-06T23:37:39.148Z,2.80
2018-08-06T23:40:06.889Z,2.43
2018-08-06T23:42:33.992Z,2.47
2018-08-06T23:45:00.916Z,2.60
2018-08-06T23:47:27.856Z,2.73
2018-08-06T23:49:54.817Z,2.50
2018-08-06T23:52:21.716Z,2.43
2018-08-06T23:54:48.625Z,2.60
2018-08-06T23:57:15.534Z,2.87
2018-08-06T23:59:42.460Z,2.57
